Terminal Aerodrome Forecast
Issued by NWS Caribou, ME

Home | Current Version | Previous Version | Text Only | Print | Product List | Glossary On
Versions: 1 2 3 4 5 6 7 8 9 10 11 12 13 14 15 16 17 18 19 20 21 22 23 24 25 26 27 28 29 30 31 32 33 34 35 36 37 38 39 40 41
240
FTUS41 KCAR 281756 AAB
TAFCAR
TAF AMD
KCAR 281756Z 2818/2918 19006KT P6SM OVC035
     FM282300 19006KT P6SM OVC009
     FM290100 22004KT 2SM BR SCT200
     FM290400 24007KT P6SM SCT200
     FM291500 24010G20KT P6SM OVC045=

USA.gov is the U.S. government's official web portal to all federal, state and local government web resources and services.